Terminal Aerodrome Forecast
Issued by NWS

Home | Current Version | Previous Version | Text Only | Print | Product List | Glossary On
Versions: 1 2 3 4 5 6 7 8 9 10 11 12 13 14 15 16 17
000
FTUS43 KGRB 231100
TAFRHI
TAF
KRHI 231134Z 2312/2412 VRB03KT P6SM BKN250
     FM231400 11005KT P6SM SCT100 OVC250
     FM232100 15007KT P6SM SCT040 BKN090
     FM240300 12005KT P6SM BKN040 OVC070
     FM240700 11007KT P6SM -SHRA SCT025 OVC040=

USA.gov is the U.S. government's official web portal to all federal, state and local government web resources and services.